Time;durP1;ratioP1;P1;durP2;ratioP2;P2;SDS_P1;SDS_P2;PMS_P1;PMS_P2;Temp;Humidity;BMP_temperature;BMP_pressure;BME280_temperature;BME280_humidity;BME280_pressure;Samples;Min_cycle;Max_cycle;Signal;HPM_P1;HPM_P2
2022/04/09 00:00:50;;;;;;;7.95;1.58;;;5.40;99.90;;;;;;5055708;28;20040;-72
2022/04/09 00:03:16;;;;;;;6.10;1.60;;;5.20;99.90;;;;;;5039232;28;20057;-71
2022/04/09 00:05:42;;;;;;;2.72;1.38;;;5.20;99.90;;;;;;5055667;28;20045;-72
2022/04/09 00:08:08;;;;;;;10.23;2.10;;;5.40;99.90;;;;;;5073399;28;20116;-75
2022/04/09 00:10:34;;;;;;;6.38;1.70;;;5.00;99.90;;;;;;5073379;28;20543;-72
2022/04/09 00:13:00;;;;;;;12.15;1.70;;;5.10;99.90;;;;;;5073238;28;20165;-73
2022/04/09 00:15:26;;;;;;;9.88;2.58;;;5.60;99.90;;;;;;5073314;28;20135;-73
2022/04/09 00:17:52;;;;;;;9.75;1.88;;;5.40;99.90;;;;;;5072973;28;20052;-73
2022/04/09 00:20:18;;;;;;;8.40;2.15;;;5.40;99.90;;;;;;5038952;28;20447;-75
2022/04/09 00:22:45;;;;;;;8.20;2.25;;;5.50;99.90;;;;;;5073244;28;20092;-74
2022/04/09 00:25:14;;;;;;;10.13;2.28;;;5.50;99.90;;;;;;5055420;28;20084;-73
2022/04/09 00:27:40;;;;;;;14.45;2.13;;;5.40;99.90;;;;;;5073425;28;20101;-72
2022/04/09 00:30:08;;;;;;;11.00;2.10;;;5.50;99.90;;;;;;5073125;28;20051;-72
2022/04/09 00:32:35;;;;;;;12.60;2.03;;;5.50;99.90;;;;;;5073032;28;20096;-75
2022/04/09 00:35:01;;;;;;;12.02;2.17;;;5.60;99.90;;;;;;5072894;28;20117;-73
2022/04/09 00:37:27;;;;;;;8.68;2.17;;;5.50;99.90;;;;;;5072878;28;20057;-73
2022/04/09 00:39:53;;;;;;;10.50;1.80;;;5.30;99.90;;;;;;5072841;28;20473;-73
2022/04/09 00:42:19;;;;;;;11.60;1.88;;;5.50;99.90;;;;;;5072932;28;20054;-72
2022/04/09 00:44:46;;;;;;;14.20;2.03;;;;;;;;;;5074221;28;20144;-74
2022/04/09 00:47:12;;;;;;;4.32;1.58;;;5.40;99.90;;;;;;5075787;28;20045;-72
2022/04/09 00:49:38;;;;;;;10.55;1.95;;;5.30;99.90;;;;;;5074198;28;20052;-73
2022/04/09 00:52:06;;;;;;;8.82;1.73;;;5.60;99.90;;;;;;5057454;28;20048;-73
2022/04/09 00:54:33;;;;;;;10.50;1.75;;;5.50;99.90;;;;;;5057953;28;20044;-73
2022/04/09 00:57:10;;;;;;;10.20;2.10;;;5.50;99.90;;;;;;5059111;28;20389;-73
2022/04/09 00:59:38;;;;;;;16.20;1.88;;;5.40;99.90;;;;;;5077607;28;20495;-73
2022/04/09 01:02:05;;;;;;;16.63;2.38;;;5.60;99.90;;;;;;5058144;28;20048;-73
2022/04/09 01:04:34;;;;;;;10.23;2.30;;;5.50;99.90;;;;;;5076515;28;20044;-72
2022/04/09 01:07:00;;;;;;;10.88;1.83;;;5.40;99.90;;;;;;5075029;28;20048;-71
2022/04/09 01:09:26;;;;;;;10.30;2.45;;;5.70;99.90;;;;;;5072587;28;20041;-72
2022/04/09 01:11:53;;;;;;;13.30;1.80;;;5.70;99.90;;;;;;5054710;28;20048;-71
2022/04/09 01:14:19;;;;;;;7.28;1.60;;;5.60;99.90;;;;;;5037947;28;20043;-72
2022/04/09 01:16:45;;;;;;;11.60;2.35;;;5.30;99.90;;;;;;5054470;28;20138;-72
2022/04/09 01:19:10;;;;;;;10.43;1.73;;;5.40;99.90;;;;;;5054604;28;20063;-71
2022/04/09 01:21:38;;;;;;;9.57;2.17;;;5.40;99.90;;;;;;5072393;28;20045;-72
2022/04/09 01:24:05;;;;;;;16.80;2.40;;;5.60;99.90;;;;;;5072386;28;20282;-73
2022/04/09 01:26:31;;;;;;;5.72;2.17;;;5.60;99.90;;;;;;5072368;28;20377;-73
2022/04/09 01:28:58;;;;;;;11.10;2.90;;;5.80;99.90;;;;;;5073167;28;20041;-70
2022/04/09 01:31:24;;;;;;;8.07;1.88;;;5.50;99.90;;;;;;5076078;28;20508;-73
2022/04/09 01:33:50;;;;;;;18.55;2.30;;;5.50;99.90;;;;;;5076298;28;20048;-72
2022/04/09 01:36:15;;;;;;;11.20;2.20;;;5.60;99.90;;;;;;5041842;28;20043;-71
2022/04/09 01:38:41;;;;;;;9.40;2.40;;;5.40;99.90;;;;;;5076329;28;20284;-75
2022/04/09 01:41:07;;;;;;;14.52;1.73;;;5.40;99.90;;;;;;5076252;28;20048;-72
2022/04/09 01:43:33;;;;;;;6.78;1.52;;;5.20;99.90;;;;;;5076143;28;20036;-72
2022/04/09 01:45:58;;;;;;;8.05;1.80;;;5.40;99.90;;;;;;5076128;28;20044;-72
2022/04/09 01:48:24;;;;;;;11.20;1.95;;;5.50;99.90;;;;;;5057965;28;20051;-72
2022/04/09 01:50:50;;;;;;;12.27;2.50;;;5.10;99.90;;;;;;5076066;28;20052;-72
2022/04/09 01:53:16;;;;;;;14.57;1.80;;;5.20;99.90;;;;;;5076244;28;20044;-72
2022/04/09 01:55:43;;;;;;;13.75;2.00;;;5.60;99.90;;;;;;5075921;28;20047;-70
2022/04/09 01:58:09;;;;;;;13.63;2.00;;;5.20;99.90;;;;;;5075847;28;20435;-73
2022/04/09 02:00:35;;;;;;;11.48;1.90;;;5.30;99.90;;;;;;5075821;28;20055;-72
2022/04/09 02:03:01;;;;;;;;;;;5.10;99.90;;;;;;5058489;28;20480;-72
2022/04/09 02:05:26;;;;;;;10.80;2.50;;;5.40;99.90;;;;;;5057832;28;19995;-77
2022/04/09 02:07:52;;;;;;;4.88;1.45;;;5.00;99.90;;;;;;5075744;28;20526;-72
2022/04/09 02:10:18;;;;;;;5.20;1.80;;;5.00;99.90;;;;;;5057997;28;20044;-76
2022/04/09 02:12:45;;;;;;;6.97;1.80;;;4.50;99.90;;;;;;5075521;28;20049;-76
2022/04/09 02:15:15;;;;;;;13.50;2.05;;;4.60;99.90;;;;;;5075287;28;20059;-76
2022/04/09 02:17:42;;;;;;;9.98;2.03;;;4.10;99.90;;;;;;5075789;28;20040;-78
2022/04/09 02:20:11;;;;;;;13.32;2.22;;;4.20;99.90;;;;;;5057600;28;20070;-78
2022/04/09 02:22:38;;;;;;;14.07;2.40;;;4.00;99.90;;;;;;5057736;28;20044;-78
2022/04/09 02:25:05;;;;;;;14.27;2.55;;;;;;;;;;5075388;28;20048;-77
2022/04/09 02:27:30;;;;;;;5.47;1.77;;;3.60;99.90;;;;;;5057417;28;20476;-76
2022/04/09 02:29:57;;;;;;;16.85;2.15;;;3.70;99.90;;;;;;5057591;28;20064;-75
2022/04/09 02:32:23;;;;;;;15.18;2.35;;;3.80;99.90;;;;;;5057527;28;20044;-74
2022/04/09 02:34:52;;;;;;;14.30;2.50;;;4.00;99.90;;;;;;5056968;28;20052;-74
2022/04/09 02:37:18;;;;;;;11.85;2.78;;;4.10;99.90;;;;;;5074779;28;20068;-73
2022/04/09 02:39:44;;;;;;;11.43;2.28;;;3.80;99.90;;;;;;5074679;28;20480;-74
2022/04/09 02:42:10;;;;;;;16.80;2.45;;;3.60;99.90;;;;;;5057435;28;20051;-73
2022/04/09 02:44:36;;;;;;;10.73;2.17;;;4.30;99.90;;;;;;5057324;28;20059;-72
2022/04/09 02:47:02;;;;;;;23.42;2.53;;;4.40;99.90;;;;;;5075004;28;20084;-73
2022/04/09 02:49:27;;;;;;;18.45;2.38;;;4.40;99.90;;;;;;5057204;28;20056;-73
2022/04/09 02:51:53;;;;;;;12.63;2.20;;;;;;;;;;5074931;28;20083;-73
2022/04/09 02:54:19;;;;;;;12.70;2.65;;;4.50;99.90;;;;;;5056723;28;20738;-73
2022/04/09 02:56:46;;;;;;;10.07;2.00;;;4.50;99.90;;;;;;5074542;28;20049;-72
2022/04/09 02:59:13;;;;;;;13.93;2.00;;;4.50;99.90;;;;;;5024230;28;20650;-72
2022/04/09 03:01:39;;;;;;;;;;;5.00;99.90;;;;;;5075104;28;20481;-74
2022/04/09 03:04:05;;;;;;;12.07;1.90;;;4.80;99.90;;;;;;5074392;28;20391;-73
2022/04/09 03:06:31;;;;;;;11.73;1.83;;;4.70;99.90;;;;;;5074711;28;20083;-73
2022/04/09 03:08:56;;;;;;;10.50;1.80;;;5.00;99.90;;;;;;5074884;28;20081;-73
2022/04/09 03:11:22;;;;;;;17.37;2.60;;;5.10;99.90;;;;;;5023438;28;20048;-78
2022/04/09 03:13:48;;;;;;;13.87;1.80;;;5.40;99.90;;;;;;5074454;28;20306;-71
2022/04/09 03:16:14;;;;;;;14.27;2.40;;;;;;;;;;5074522;28;20274;-73
2022/04/09 03:18:39;;;;;;;12.38;2.30;;;5.30;99.90;;;;;;5074385;28;20285;-74
2022/04/09 03:21:05;;;;;;;10.80;1.95;;;5.20;99.90;;;;;;5056699;28;20056;-72
2022/04/09 03:23:31;;;;;;;5.93;1.73;;;5.40;99.90;;;;;;5074285;28;20040;-75
2022/04/09 03:25:56;;;;;;;17.55;2.53;;;5.20;99.90;;;;;;5039953;28;20059;-72
2022/04/09 03:28:22;;;;;;;11.32;2.05;;;5.20;99.90;;;;;;5074216;28;20045;-73
2022/04/09 03:30:48;;;;;;;8.95;2.20;;;5.30;99.90;;;;;;5056269;28;20051;-76
2022/04/09 03:33:13;;;;;;;12.90;2.10;;;5.30;99.90;;;;;;5074011;28;20036;-72
2022/04/09 03:35:40;;;;;;;13.90;2.20;;;5.30;99.90;;;;;;5074005;28;20055;-74
2022/04/09 03:38:09;;;;;;;11.00;1.70;;;5.60;99.90;;;;;;5056033;28;20144;-72
2022/04/09 03:40:34;;;;;;;14.43;2.67;;;5.40;99.90;;;;;;5073852;28;20477;-73
2022/04/09 03:43:00;;;;;;;13.07;2.00;;;5.40;99.90;;;;;;5073972;28;20052;-72
2022/04/09 03:45:26;;;;;;;7.70;1.50;;;5.40;99.90;;;;;;5073856;28;20495;-73
2022/04/09 03:47:51;;;;;;;9.48;1.60;;;5.30;99.90;;;;;;5073863;28;20146;-73
2022/04/09 03:50:17;;;;;;;19.80;3.08;;;5.70;99.90;;;;;;5055884;28;20048;-74
2022/04/09 03:52:43;;;;;;;14.02;2.25;;;5.20;99.90;;;;;;5055303;28;20052;-71
2022/04/09 03:55:09;;;;;;;16.38;2.15;;;4.90;99.90;;;;;;5055827;28;20469;-78
2022/04/09 03:57:35;;;;;;;18.98;2.67;;;4.80;99.90;;;;;;5073641;28;20053;-79
2022/04/09 04:00:01;;;;;;;14.52;2.33;;;4.90;99.90;;;;;;5073560;28;20048;-73
2022/04/09 04:02:26;;;;;;;12.18;1.90;;;4.70;99.90;;;;;;5039050;28;20052;-77
2022/04/09 04:04:52;;;;;;;9.15;1.90;;;4.50;99.90;;;;;;5073455;28;20051;-79
2022/04/09 04:07:23;;;;;;;11.23;1.55;;;4.70;99.90;;;;;;5055610;28;20124;-75
2022/04/09 04:09:49;;;;;;;6.15;1.20;;;4.70;99.90;;;;;;5073493;28;20126;-72
2022/04/09 04:12:15;;;;;;;9.13;1.38;;;4.60;99.90;;;;;;5073002;28;20500;-72
2022/04/09 04:14:41;;;;;;;9.00;1.88;;;4.70;99.90;;;;;;5055436;28;20051;-76
2022/04/09 04:17:07;;;;;;;11.02;1.60;;;;;;;;;;5073288;28;20044;-74
2022/04/09 04:19:33;;;;;;;8.75;1.58;;;;;;;;;;5073190;28;20045;-71
2022/04/09 04:21:58;;;;;;;5.18;1.42;;;5.00;99.90;;;;;;5073152;28;20479;-74
2022/04/09 04:24:24;;;;;;;10.27;2.25;;;4.80;99.90;;;;;;5073120;28;20127;-75
2022/04/09 04:26:50;;;;;;;16.05;2.25;;;4.60;99.90;;;;;;5055266;28;20419;-73
2022/04/09 04:29:15;;;;;;;17.92;2.05;;;5.10;99.90;;;;;;5072885;28;20037;-74
2022/04/09 04:31:41;;;;;;;9.98;1.83;;;4.70;99.90;;;;;;5055122;28;20549;-75
2022/04/09 04:34:07;;;;;;;15.65;2.10;;;5.00;99.90;;;;;;5072946;28;20059;-74
2022/04/09 04:36:32;;;;;;;9.57;2.08;;;5.00;99.90;;;;;;5055085;28;20131;-77
2022/04/09 04:38:58;;;;;;;12.82;2.15;;;;;;;;;;5054946;28;20072;-72
2022/04/09 04:41:24;;;;;;;15.73;1.77;;;5.10;99.90;;;;;;5072891;28;20048;-72
2022/04/09 04:43:52;;;;;;;14.75;2.65;;;5.20;99.90;;;;;;5072826;28;20047;-76
2022/04/09 04:46:19;;;;;;;7.43;2.10;;;5.40;99.90;;;;;;5072792;28;20067;-74
2022/04/09 04:48:46;;;;;;;11.60;1.92;;;5.20;99.90;;;;;;5055171;28;20056;-74
2022/04/09 04:51:12;;;;;;;16.50;2.22;;;5.00;99.90;;;;;;5072734;28;20040;-73
2022/04/09 04:53:37;;;;;;;16.23;2.40;;;5.20;99.90;;;;;;5054783;28;20048;-74
2022/04/09 04:56:03;;;;;;;13.57;2.20;;;5.40;99.90;;;;;;5038460;28;20048;-74
2022/04/09 04:58:29;;;;;;;7.35;1.83;;;5.40;99.90;;;;;;5038269;28;20436;-74
2022/04/09 05:00:55;;;;;;;8.82;2.00;;;5.40;99.90;;;;;;5072664;28;20075;-75
2022/04/09 05:03:21;;;;;;;19.05;2.55;;;5.30;99.90;;;;;;5071774;28;20494;-73
2022/04/09 05:05:47;;;;;;;14.75;1.88;;;5.30;99.90;;;;;;5054630;28;20117;-71
2022/04/09 05:08:13;;;;;;;14.32;2.33;;;5.50;99.90;;;;;;5072540;28;20044;-73
2022/04/09 05:10:39;;;;;;;18.60;2.00;;;5.10;99.90;;;;;;5054714;28;20048;-73
2022/04/09 05:13:05;;;;;;;12.40;2.40;;;5.40;99.90;;;;;;5037872;28;20056;-77
2022/04/09 05:15:31;;;;;;;9.52;2.10;;;5.50;99.90;;;;;;5072499;28;20052;-76
2022/04/09 05:17:57;;;;;;;;;;;5.40;99.90;;;;;;5072897;28;20710;-73
2022/04/09 05:20:22;;;;;;;6.72;2.00;;;4.90;99.90;;;;;;5072159;28;19931;-72
2022/04/09 05:22:48;;;;;;;6.90;1.75;;;4.80;99.90;;;;;;5072476;28;20048;-73
2022/04/09 05:25:18;;;;;;;10.25;2.05;;;4.50;99.90;;;;;;5072430;28;20045;-71
2022/04/09 05:27:44;;;;;;;11.45;1.70;;;;;;;;;;5072083;28;20481;-72
2022/04/09 05:30:10;;;;;;;6.75;1.60;;;4.70;99.90;;;;;;5072364;28;20049;-72
2022/04/09 05:32:39;;;;;;;2.25;1.17;;;;;;;;;;5054528;28;20044;-73
2022/04/09 05:35:06;;;;;;;8.13;1.60;;;4.20;99.90;;;;;;5072163;28;20515;-74
2022/04/09 05:37:32;;;;;;;8.38;1.77;;;4.40;99.90;;;;;;5072128;28;20056;-74
2022/04/09 05:39:58;;;;;;;10.45;1.90;;;4.30;99.90;;;;;;5037766;28;20059;-76
2022/04/09 05:42:25;;;;;;;11.93;2.33;;;4.60;99.90;;;;;;5072265;28;20067;-73
2022/04/09 05:44:52;;;;;;;16.40;2.08;;;4.90;99.90;;;;;;5072102;28;20040;-75
2022/04/09 05:47:18;;;;;;;12.57;2.38;;;4.80;99.90;;;;;;5072117;28;20048;-73
2022/04/09 05:49:44;;;;;;;26.58;3.00;;;5.40;99.90;;;;;;5054450;28;20393;-72
2022/04/09 05:52:10;;;;;;;13.98;2.78;;;5.20;99.90;;;;;;5072092;28;20056;-72
2022/04/09 05:54:35;;;;;;;12.18;2.47;;;5.40;99.90;;;;;;5072014;28;20550;-71
2022/04/09 05:57:02;;;;;;;8.32;2.15;;;;;;;;;;5072072;28;20045;-73
2022/04/09 05:59:30;;;;;;;11.90;2.70;;;5.00;99.90;;;;;;5054349;28;20395;-75
2022/04/09 06:01:56;;;;;;;16.77;3.03;;;5.10;99.90;;;;;;5054335;28;20044;-74
2022/04/09 06:04:22;;;;;;;18.48;2.60;;;;;;;;;;5072007;28;20037;-74
2022/04/09 06:06:49;;;;;;;14.50;2.28;;;5.10;99.90;;;;;;5072008;28;20408;-75
2022/04/09 06:09:15;;;;;;;16.35;3.05;;;4.90;99.90;;;;;;5054048;28;20040;-75
2022/04/09 06:11:42;;;;;;;18.58;2.20;;;5.20;99.90;;;;;;5054247;28;20074;-72
2022/04/09 06:14:08;;;;;;;;;;;5.80;99.90;;;;;;5072279;28;20090;-76
2022/04/09 06:16:35;;;;;;;18.88;2.90;;;5.80;99.90;;;;;;5075115;28;20015;-73
2022/04/09 06:19:01;;;;;;;18.25;2.95;;;5.80;99.90;;;;;;5075469;28;20044;-75
2022/04/09 06:21:29;;;;;;;13.18;2.03;;;6.10;99.90;;;;;;5057820;28;20067;-74
2022/04/09 06:23:56;;;;;;;17.15;2.40;;;5.80;99.90;;;;;;5057715;28;20092;-75
2022/04/09 06:26:22;;;;;;;9.75;2.20;;;5.90;99.90;;;;;;5057808;28;20147;-74
2022/04/09 06:28:48;;;;;;;16.67;2.40;;;5.60;99.90;;;;;;5075385;28;20115;-74
2022/04/09 06:31:14;;;;;;;;;;;5.80;99.90;;;;;;5075704;28;20495;-75
2022/04/09 06:33:39;;;;;;;10.30;2.63;;;5.80;99.90;;;;;;5057341;28;19920;-72
2022/04/09 06:36:05;;;;;;;9.80;2.03;;;5.80;99.90;;;;;;5075236;28;20055;-76
2022/04/09 06:38:33;;;;;;;18.05;2.80;;;6.30;99.90;;;;;;5057192;28;20303;-74
2022/04/09 06:40:59;;;;;;;14.63;2.40;;;6.10;99.90;;;;;;5057274;28;20130;-73
2022/04/09 06:43:26;;;;;;;16.38;2.78;;;6.10;99.90;;;;;;5075253;28;20044;-73
2022/04/09 06:45:52;;;;;;;14.30;2.50;;;6.10;99.90;;;;;;5075007;28;20048;-75
2022/04/09 06:48:17;;;;;;;19.45;3.05;;;6.40;99.90;;;;;;5074988;28;20063;-73
2022/04/09 06:50:43;;;;;;;19.10;2.50;;;6.10;99.90;;;;;;5074964;28;20044;-77
2022/04/09 06:53:10;;;;;;;13.02;2.80;;;6.30;99.90;;;;;;5040478;28;20127;-75
2022/04/09 06:55:36;;;;;;;14.75;2.90;;;6.40;99.90;;;;;;5057223;28;20093;-72
2022/04/09 06:58:03;;;;;;;13.55;2.42;;;6.30;99.90;;;;;;5074883;28;20122;-74
2022/04/09 07:00:29;;;;;;;;;;;6.20;99.90;;;;;;5057312;28;20055;-75
2022/04/09 07:02:54;;;;;;;10.32;2.28;;;6.20;99.90;;;;;;5074745;28;19922;-74
2022/04/09 07:05:20;;;;;;;12.63;1.98;;;6.20;99.90;;;;;;5074977;28;20064;-75
2022/04/09 07:07:50;;;;;;;7.90;2.35;;;6.50;99.90;;;;;;5074662;28;20044;-78
2022/04/09 07:10:16;;;;;;;11.18;2.15;;;6.60;99.90;;;;;;5074645;28;20119;-72
2022/04/09 07:12:43;;;;;;;11.32;2.17;;;6.50;99.90;;;;;;5056883;28;20561;-72
2022/04/09 07:15:09;;;;;;;;;;;6.70;99.90;;;;;;5074912;28;20123;-75
2022/04/09 07:17:34;;;;;;;17.38;2.10;;;7.00;99.90;;;;;;5074492;28;19920;-73
2022/04/09 07:20:03;;;;;;;13.15;1.98;;;6.90;99.90;;;;;;5074375;28;20117;-75
2022/04/09 07:22:29;;;;;;;22.02;2.97;;;7.00;99.90;;;;;;5055862;28;20443;-74
2022/04/09 07:24:55;;;;;;;19.27;2.90;;;7.00;99.90;;;;;;5074391;28;20045;-80
2022/04/09 07:27:32;;;;;;;15.15;2.33;;;6.90;99.90;;;;;;5055324;28;20040;-72
2022/04/09 07:29:58;;;;;;;22.67;2.97;;;7.00;99.90;;;;;;5074245;28;20048;-73
2022/04/09 07:32:24;;;;;;;21.52;2.63;;;7.00;99.90;;;;;;5074611;28;20483;-77
2022/04/09 07:34:49;;;;;;;13.13;2.40;;;7.60;99.90;;;;;;5056257;28;20465;-74
2022/04/09 07:37:15;;;;;;;18.92;2.83;;;7.40;99.90;;;;;;5073852;28;20404;-76
2022/04/09 07:39:41;;;;;;;15.27;2.63;;;7.40;99.90;;;;;;5074169;28;20071;-76
2022/04/09 07:42:07;;;;;;;20.88;2.45;;;7.70;99.90;;;;;;5074284;28;20109;-77
2022/04/09 07:44:32;;;;;;;19.73;2.60;;;7.60;99.90;;;;;;5073957;28;20369;-76
2022/04/09 07:46:58;;;;;;;11.80;2.55;;;7.20;99.90;;;;;;5073893;28;20055;-74
2022/04/09 07:49:24;;;;;;;11.40;2.70;;;7.20;99.90;;;;;;5056206;28;20412;-74
2022/04/09 07:51:49;;;;;;;9.10;1.98;;;7.40;99.90;;;;;;5055972;28;20044;-76
2022/04/09 07:54:15;;;;;;;17.15;2.03;;;7.70;99.90;;;;;;5073647;28;20040;-75
2022/04/09 07:56:41;;;;;;;13.55;2.40;;;7.20;99.90;;;;;;5056127;28;20097;-73
2022/04/09 07:59:07;;;;;;;15.82;2.50;;;9.20;99.90;;;;;;5073624;28;20048;-74
2022/04/09 08:01:33;;;;;;;10.90;2.10;;;7.60;99.90;;;;;;5073536;28;20090;-76
2022/04/09 08:03:58;;;;;;;12.98;2.20;;;7.30;99.90;;;;;;5055513;28;20040;-74
2022/04/09 08:06:24;;;;;;;12.20;2.40;;;7.20;99.90;;;;;;5055661;28;20063;-77
2022/04/09 08:08:49;;;;;;;12.77;2.80;;;7.70;99.90;;;;;;5055734;28;20040;-73
2022/04/09 08:11:15;;;;;;;13.93;3.00;;;7.60;99.90;;;;;;5073504;28;20055;-80
2022/04/09 08:13:41;;;;;;;17.67;2.40;;;7.70;99.90;;;;;;5055339;28;20403;-73
2022/04/09 08:16:06;;;;;;;13.13;2.40;;;7.70;99.90;;;;;;5055292;28;20476;-77
2022/04/09 08:18:32;;;;;;;13.90;2.42;;;7.70;99.90;;;;;;5073348;28;20127;-73
2022/04/09 08:20:58;;;;;;;18.80;2.67;;;7.90;99.90;;;;;;5073208;28;20047;-74
2022/04/09 08:23:23;;;;;;;12.48;2.60;;;7.90;99.90;;;;;;5073211;28;20085;-73
2022/04/09 08:25:49;;;;;;;15.00;2.35;;;7.90;99.90;;;;;;5055255;28;20102;-73
2022/04/09 08:28:16;;;;;;;12.70;2.40;;;8.70;99.90;;;;;;5055228;28;20044;-79
2022/04/09 08:30:43;;;;;;;17.35;2.13;;;8.50;99.90;;;;;;5073025;28;20054;-75
2022/04/09 08:33:10;;;;;;;11.48;2.10;;;8.50;99.90;;;;;;5072957;28;20142;-73
2022/04/09 08:35:36;;;;;;;8.82;1.95;;;7.70;99.90;;;;;;5072958;28;20045;-74
2022/04/09 08:38:03;;;;;;;7.90;1.58;;;6.20;99.90;;;;;;5077490;28;20150;-76
2022/04/09 08:40:32;;;;;;;14.25;2.42;;;5.50;99.90;;;;;;5075296;28;20437;-73
2022/04/09 08:42:58;;;;;;;12.05;2.00;;;4.90;99.90;;;;;;5052573;28;20044;-75
2022/04/09 08:45:24;;;;;;;10.48;1.60;;;4.90;99.90;;;;;;5071605;28;20065;-75
2022/04/09 08:47:51;;;;;;;4.72;1.10;;;5.10;99.90;;;;;;5012662;28;20052;-75
2022/04/09 08:50:17;;;;;;;1.75;0.85;;;4.80;99.90;;;;;;5028949;28;20181;-75
2022/04/09 08:52:47;;;;;;;1.77;0.93;;;4.90;99.90;;;;;;5069784;28;20048;-81
2022/04/09 08:55:13;;;;;;;2.15;0.77;;;;;;;;;;5050323;28;20048;-80
2022/04/09 08:57:40;;;;;;;5.50;0.80;;;5.40;99.90;;;;;;5032375;28;20053;-77
2022/04/09 09:00:13;;;;;;;6.57;1.25;;;5.80;99.90;;;;;;5071445;28;20068;-81
2022/04/09 09:02:51;;;;;;;5.68;1.67;;;6.10;99.90;;;;;;5051733;28;20052;-76
2022/04/09 09:05:38;;;;;;;11.68;1.88;;;6.80;99.90;;;;;;5046658;28;20056;-71
2022/04/09 09:08:04;;;;;;;10.32;2.30;;;6.70;99.90;;;;;;5070208;28;20045;-79
2022/04/09 09:10:31;;;;;;;12.30;1.80;;;7.20;99.90;;;;;;5071261;28;20401;-76
2022/04/09 09:13:08;;;;;;;15.77;2.10;;;7.00;99.90;;;;;;5047400;28;20072;-76
2022/04/09 09:15:55;;;;;;;14.55;2.92;;;7.50;99.90;;;;;;5071449;28;20051;-74
2022/04/09 09:18:26;;;;;;;10.50;1.80;;;7.70;99.90;;;;;;5050314;28;20102;-75
2022/04/09 09:20:54;;;;;;;9.60;2.58;;;7.70;99.90;;;;;;5067972;28;20119;-75
2022/04/09 09:23:24;;;;;;;15.65;2.72;;;7.30;99.90;;;;;;5051747;28;20048;-73
2022/04/09 09:25:54;;;;;;;12.82;2.00;;;7.40;99.90;;;;;;5070681;28;20484;-72
2022/04/09 09:28:31;;;;;;;9.30;1.63;;;6.10;99.90;;;;;;5051922;28;20745;-75
2022/04/09 09:30:58;;;;;;;8.80;1.77;;;5.50;99.90;;;;;;5068522;28;20045;-69
2022/04/09 09:33:24;;;;;;;1.52;0.80;;;4.80;99.90;;;;;;5071885;28;20051;-70
2022/04/09 09:35:55;;;;;;;3.92;0.70;;;4.60;99.90;;;;;;5072050;28;20135;-72
2022/04/09 09:38:28;;;;;;;0.80;0.57;;;4.60;99.90;;;;;;5071895;28;20056;-71
2022/04/09 09:40:56;;;;;;;3.50;0.68;;;4.50;99.90;;;;;;5071966;28;20138;-74
2022/04/09 09:43:23;;;;;;;3.60;0.80;;;4.70;99.90;;;;;;5071980;28;20048;-73
2022/04/09 09:45:50;;;;;;;4.72;0.90;;;4.80;99.90;;;;;;5071220;28;20048;-83
2022/04/09 09:48:26;;;;;;;3.42;1.20;;;4.60;99.90;;;;;;5072190;28;20044;-74
2022/04/09 09:50:54;;;;;;;3.70;1.08;;;5.20;99.90;;;;;;5056661;28;20053;-72
2022/04/09 09:53:33;;;;;;;7.55;1.40;;;;;;;;;;5076042;28;20037;-73
2022/04/09 09:56:01;;;;;;;7.15;1.60;;;5.20;99.90;;;;;;5075962;28;20055;-74
2022/04/09 09:58:29;;;;;;;5.43;1.15;;;5.60;99.90;;;;;;5075916;28;20120;-72
2022/04/09 10:00:56;;;;;;;7.50;1.38;;;5.60;99.90;;;;;;5058221;28;20058;-76
2022/04/09 10:03:23;;;;;;;8.13;1.38;;;5.60;99.90;;;;;;5075963;28;20055;-73
2022/04/09 10:05:51;;;;;;;;;;;6.20;99.90;;;;;;5076229;28;20047;-76
2022/04/09 10:08:21;;;;;;;7.75;1.20;;;6.30;99.90;;;;;;5058169;28;20062;-75
2022/04/09 10:10:48;;;;;;;6.47;1.00;;;6.20;99.90;;;;;;5058121;28;20503;-75
2022/04/09 10:13:23;;;;;;;11.80;1.30;;;7.00;99.90;;;;;;5075701;28;20044;-76
2022/04/09 10:15:50;;;;;;;16.23;1.60;;;7.30;99.90;;;;;;5075770;28;20186;-77
2022/04/09 10:18:24;;;;;;;10.32;1.50;;;6.20;99.90;;;;;;5057767;28;20059;-77
2022/04/09 10:20:59;;;;;;;5.70;1.50;;;6.60;99.90;;;;;;5057611;28;20502;-72
2022/04/09 10:23:29;;;;;;;13.60;1.77;;;5.90;99.90;;;;;;5058035;28;20048;-75
2022/04/09 10:25:56;;;;;;;6.03;1.20;;;5.90;99.90;;;;;;5057898;28;20131;-76
2022/04/09 10:28:40;;;;;;;11.50;1.75;;;6.00;99.90;;;;;;5035158;28;20416;-77
2022/04/09 10:31:24;;;;;;;6.60;1.50;;;;;;;;;;5048334;28;20057;-76
2022/04/09 10:33:55;;;;;;;10.07;1.75;;;6.30;99.90;;;;;;5039743;28;20558;-72
2022/04/09 10:36:48;;;;;;;7.03;1.48;;;6.70;99.90;;;;;;5069852;28;20102;-74
2022/04/09 10:39:39;;;;;;;9.95;1.55;;;6.80;99.90;;;;;;4999147;28;20049;-75
2022/04/09 10:42:09;;;;;;;6.85;1.80;;;7.10;99.90;;;;;;5051880;28;20080;-77
2022/04/09 10:44:44;;;;;;;13.02;1.98;;;7.30;99.90;;;;;;5051887;28;20056;-76
2022/04/09 10:47:14;;;;;;;12.73;2.28;;;7.30;99.90;;;;;;5053749;28;20196;-74
2022/04/09 10:50:00;;;;;;;12.05;1.90;;;7.90;99.90;;;;;;5053523;28;20635;-75
2022/04/09 10:52:28;;;;;;;17.55;2.50;;;7.80;99.90;;;;;;5052647;28;20102;-73
2022/04/09 10:55:07;;;;;;;13.65;2.75;;;8.90;99.90;;;;;;5052273;28;20397;-75
2022/04/09 10:57:47;;;;;;;14.27;2.17;;;8.40;99.90;;;;;;5053689;28;20129;-75
2022/04/09 11:00:34;;;;;;;10.57;1.92;;;8.30;99.90;;;;;;5035851;28;20059;-76
2022/04/09 11:03:28;;;;;;;16.15;3.17;;;8.50;99.90;;;;;;5018554;28;20130;-77
2022/04/09 11:06:31;;;;;;;13.45;2.13;;;8.30;99.90;;;;;;5052780;28;20060;-75
2022/04/09 11:08:58;;;;;;;12.57;2.13;;;8.20;99.90;;;;;;5035456;28;20523;-76
2022/04/09 11:11:27;;;;;;;8.27;1.77;;;9.20;99.90;;;;;;5053336;28;20053;-73
2022/04/09 11:13:53;;;;;;;16.13;1.95;;;7.90;99.90;;;;;;5051332;28;20102;-74
2022/04/09 11:16:21;;;;;;;13.07;1.73;;;8.10;99.90;;;;;;5053402;28;20082;-75
2022/04/09 11:18:47;;;;;;;10.20;1.85;;;8.40;99.90;;;;;;5035629;28;20386;-74
2022/04/09 11:21:13;;;;;;;15.18;2.47;;;9.60;99.90;;;;;;5032169;28;20064;-76
2022/04/09 11:23:39;;;;;;;12.25;2.50;;;8.40;99.90;;;;;;5053388;28;20037;-76
2022/04/09 11:26:05;;;;;;;8.23;1.52;;;8.10;99.90;;;;;;5035390;28;20393;-77
2022/04/09 11:28:40;;;;;;;14.10;2.22;;;8.90;99.90;;;;;;5054310;28;20054;-74
2022/04/09 11:31:06;;;;;;;9.30;1.90;;;8.20;99.90;;;;;;5048163;28;20449;-74
2022/04/09 11:33:32;;;;;;;11.32;2.83;;;9.30;99.90;;;;;;5072517;28;20044;-74
2022/04/09 11:36:00;;;;;;;7.95;1.58;;;8.80;99.90;;;;;;5072658;28;20049;-75
2022/04/09 11:38:27;;;;;;;10.70;1.73;;;8.30;99.90;;;;;;5055713;28;20049;-76
2022/04/09 11:40:54;;;;;;;7.47;1.50;;;8.30;99.90;;;;;;5039739;28;20078;-75
2022/04/09 11:43:21;;;;;;;10.63;1.75;;;8.50;99.90;;;;;;5073818;28;20059;-75
2022/04/09 11:45:47;;;;;;;6.50;1.63;;;8.50;99.90;;;;;;5074131;28;20051;-73
2022/04/09 11:48:18;;;;;;;6.50;1.52;;;8.40;99.90;;;;;;5074051;28;20051;-76
2022/04/09 11:50:45;;;;;;;7.55;1.42;;;8.60;99.90;;;;;;5073861;28;20097;-76
2022/04/09 11:53:22;;;;;;;11.20;1.55;;;8.60;99.90;;;;;;5055853;28;20044;-75
2022/04/09 11:55:49;;;;;;;7.10;1.58;;;9.30;99.90;;;;;;5055437;28;20525;-74
2022/04/09 11:58:18;;;;;;;15.85;1.98;;;8.60;99.90;;;;;;5073755;28;20049;-74
2022/04/09 12:00:46;;;;;;;4.43;1.38;;;9.20;99.90;;;;;;5055901;28;20071;-76
2022/04/09 12:03:12;;;;;;;8.02;1.77;;;8.40;99.90;;;;;;5039070;28;20054;-73
2022/04/09 12:05:46;;;;;;;11.80;1.98;;;9.10;99.90;;;;;;5073538;28;20479;-78
2022/04/09 12:08:13;;;;;;;7.90;1.60;;;8.30;99.90;;;;;;5055623;28;20135;-78
2022/04/09 12:11:01;;;;;;;14.05;1.73;;;8.40;99.90;;;;;;5038829;28;20051;-75
2022/04/09 12:13:29;;;;;;;13.25;1.73;;;9.10;99.90;;;;;;5072871;28;20106;-76
2022/04/09 12:16:15;;;;;;;10.02;1.70;;;8.10;99.90;;;;;;5055426;28;20083;-76
2022/04/09 12:18:42;;;;;;;9.90;1.80;;;8.20;99.90;;;;;;5072398;28;20053;-74
2022/04/09 12:21:24;;;;;;;9.85;1.80;;;8.80;99.90;;;;;;5073240;28;20052;-76
2022/04/09 12:24:06;;;;;;;8.15;1.40;;;8.00;99.90;;;;;;5055335;28;20052;-76
2022/04/09 12:26:35;;;;;;;14.63;1.98;;;7.90;99.90;;;;;;5072955;28;20048;-76
2022/04/09 12:29:08;;;;;;;6.50;1.83;;;8.30;99.90;;;;;;5054978;28;20049;-78
2022/04/09 12:31:35;;;;;;;12.10;2.35;;;8.20;99.90;;;;;;5054879;28;20124;-74
2022/04/09 12:34:02;;;;;;;7.50;1.70;;;8.20;99.90;;;;;;5054942;28;20040;-78
2022/04/09 12:36:27;;;;;;;11.30;1.85;;;8.20;99.90;;;;;;5031709;28;20479;-77
2022/04/09 12:38:53;;;;;;;9.85;1.98;;;8.40;99.90;;;;;;5051694;28;20076;-78
2022/04/09 12:41:19;;;;;;;8.93;1.77;;;9.10;99.90;;;;;;5054968;28;20092;-79
2022/04/09 12:43:46;;;;;;;11.13;2.33;;;8.20;99.90;;;;;;5054336;28;20051;-76
2022/04/09 12:46:14;;;;;;;13.27;1.65;;;8.70;99.90;;;;;;5054958;28;20381;-74
2022/04/09 12:48:47;;;;;;;11.88;1.88;;;8.20;99.90;;;;;;5065976;28;20424;-76
2022/04/09 12:51:23;;;;;;;10.52;1.92;;;8.80;99.90;;;;;;5043818;28;20139;-75
2022/04/09 12:53:49;;;;;;;12.95;2.17;;;9.90;99.90;;;;;;5060268;28;20099;-74
2022/04/09 12:56:17;;;;;;;15.52;2.20;;;8.70;99.90;;;;;;5043510;28;20070;-75
2022/04/09 12:58:45;;;;;;;14.32;2.10;;;8.50;99.90;;;;;;5058647;28;20456;-78